sensor_id;sensor_type;location;lat;lon;timestamp;P1;durP1;ratioP1;P2;durP2;ratioP2
11685;SDS011;5899;51.282;6.094;2023-08-01T00:01:53;0.80;;;0.80;;
11685;SDS011;5899;51.282;6.094;2023-08-01T00:04:22;0.85;;;0.85;;
11685;SDS011;5899;51.282;6.094;2023-08-01T00:06:51;1.05;;;0.90;;
11685;SDS011;5899;51.282;6.094;2023-08-01T00:09:22;1.20;;;1.10;;
11685;SDS011;5899;51.282;6.094;2023-08-01T00:12:00;1.58;;;1.40;;
11685;SDS011;5899;51.282;6.094;2023-08-01T00:14:35;1.60;;;1.30;;
11685;SDS011;5899;51.282;6.094;2023-08-01T00:17:02;1.20;;;1.10;;
11685;SDS011;5899;51.282;6.094;2023-08-01T00:19:28;1.13;;;1.02;;
11685;SDS011;5899;51.282;6.094;2023-08-01T00:24:44;1.25;;;0.90;;
11685;SDS011;5899;51.282;6.094;2023-08-01T00:27:14;1.15;;;1.05;;
11685;SDS011;5899;51.282;6.094;2023-08-01T00:29:49;1.15;;;1.10;;
11685;SDS011;5899;51.282;6.094;2023-08-01T00:34:57;1.10;;;1.00;;
11685;SDS011;5899;51.282;6.094;2023-08-01T00:37:24;1.20;;;1.10;;
11685;SDS011;5899;51.282;6.094;2023-08-01T00:39:57;0.95;;;0.95;;
11685;SDS011;5899;51.282;6.094;2023-08-01T00:42:46;1.00;;;1.00;;
11685;SDS011;5899;51.282;6.094;2023-08-01T00:45:27;1.10;;;1.00;;
11685;SDS011;5899;51.282;6.094;2023-08-01T00:47:56;1.30;;;0.93;;
11685;SDS011;5899;51.282;6.094;2023-08-01T00:50:24;1.20;;;1.10;;
11685;SDS011;5899;51.282;6.094;2023-08-01T00:52:54;1.20;;;1.10;;
11685;SDS011;5899;51.282;6.094;2023-08-01T00:58:08;1.23;;;1.13;;
11685;SDS011;5899;51.282;6.094;2023-08-01T01:00:48;1.30;;;1.20;;
11685;SDS011;5899;51.282;6.094;2023-08-01T01:03:20;1.00;;;1.00;;
11685;SDS011;5899;51.282;6.094;2023-08-01T01:05:49;1.27;;;1.17;;
11685;SDS011;5899;51.282;6.094;2023-08-01T01:08:32;1.60;;;1.50;;
11685;SDS011;5899;51.282;6.094;2023-08-01T01:11:35;1.50;;;1.40;;
11685;SDS011;5899;51.282;6.094;2023-08-01T01:14:20;1.40;;;1.30;;
11685;SDS011;5899;51.282;6.094;2023-08-01T01:16:52;1.60;;;1.50;;
11685;SDS011;5899;51.282;6.094;2023-08-01T01:20:05;1.58;;;1.48;;
11685;SDS011;5899;51.282;6.094;2023-08-01T01:22:33;1.50;;;1.40;;
11685;SDS011;5899;51.282;6.094;2023-08-01T01:25:22;1.75;;;1.65;;
11685;SDS011;5899;51.282;6.094;2023-08-01T01:27:53;2.17;;;1.98;;
11685;SDS011;5899;51.282;6.094;2023-08-01T01:30:47;2.90;;;2.47;;
11685;SDS011;5899;51.282;6.094;2023-08-01T01:33:18;2.60;;;2.40;;
11685;SDS011;5899;51.282;6.094;2023-08-01T01:35:47;3.43;;;3.13;;
11685;SDS011;5899;51.282;6.094;2023-08-01T01:41:05;3.63;;;3.07;;
11685;SDS011;5899;51.282;6.094;2023-08-01T01:43:38;3.30;;;3.00;;
11685;SDS011;5899;51.282;6.094;2023-08-01T01:46:09;3.65;;;3.35;;
11685;SDS011;5899;51.282;6.094;2023-08-01T01:48:37;3.53;;;3.22;;
11685;SDS011;5899;51.282;6.094;2023-08-01T01:51:27;3.50;;;3.20;;
11685;SDS011;5899;51.282;6.094;2023-08-01T01:54:11;3.80;;;3.50;;
11685;SDS011;5899;51.282;6.094;2023-08-01T01:56:40;5.22;;;3.45;;
11685;SDS011;5899;51.282;6.094;2023-08-01T01:59:09;4.85;;;3.97;;
11685;SDS011;5899;51.282;6.094;2023-08-01T02:01:42;5.78;;;3.83;;
11685;SDS011;5899;51.282;6.094;2023-08-01T02:04:49;4.57;;;3.95;;
11685;SDS011;5899;51.282;6.094;2023-08-01T02:07:43;5.50;;;4.45;;
11685;SDS011;5899;51.282;6.094;2023-08-01T02:10:06;5.68;;;4.65;;
11685;SDS011;5899;51.282;6.094;2023-08-01T02:15:47;6.22;;;4.53;;
11685;SDS011;5899;51.282;6.094;2023-08-01T02:18:46;5.80;;;4.90;;
11685;SDS011;5899;51.282;6.094;2023-08-01T02:21:03;7.15;;;5.32;;
11685;SDS011;5899;51.282;6.094;2023-08-01T02:23:48;5.93;;;5.03;;
11685;SDS011;5899;51.282;6.094;2023-08-01T02:26:29;7.05;;;5.30;;
11685;SDS011;5899;51.282;6.094;2023-08-01T02:29:12;7.30;;;5.53;;
11685;SDS011;5899;51.282;6.094;2023-08-01T02:34:33;7.22;;;5.13;;
11685;SDS011;5899;51.282;6.094;2023-08-01T02:37:15;7.07;;;5.17;;
11685;SDS011;5899;51.282;6.094;2023-08-01T02:40:05;8.85;;;6.03;;
11685;SDS011;5899;51.282;6.094;2023-08-01T02:42:49;6.50;;;5.18;;
11685;SDS011;5899;51.282;6.094;2023-08-01T02:45:27;9.02;;;5.80;;
11685;SDS011;5899;51.282;6.094;2023-08-01T02:48:00;8.57;;;5.65;;
11685;SDS011;5899;51.282;6.094;2023-08-01T02:50:34;7.45;;;5.78;;
11685;SDS011;5899;51.282;6.094;2023-08-01T02:53:06;9.65;;;6.20;;
11685;SDS011;5899;51.282;6.094;2023-08-01T02:55:33;6.28;;;5.45;;
11685;SDS011;5899;51.282;6.094;2023-08-01T02:58:00;9.07;;;5.82;;
11685;SDS011;5899;51.282;6.094;2023-08-01T03:00:31;8.00;;;6.10;;
11685;SDS011;5899;51.282;6.094;2023-08-01T03:03:18;10.55;;;6.20;;
11685;SDS011;5899;51.282;6.094;2023-08-01T03:06:03;10.27;;;7.25;;
11685;SDS011;5899;51.282;6.094;2023-08-01T03:08:43;7.60;;;6.15;;
11685;SDS011;5899;51.282;6.094;2023-08-01T03:11:22;6.60;;;5.60;;
11685;SDS011;5899;51.282;6.094;2023-08-01T03:13:56;9.25;;;6.32;;
11685;SDS011;5899;51.282;6.094;2023-08-01T03:16:27;8.30;;;7.10;;
11685;SDS011;5899;51.282;6.094;2023-08-01T03:19:11;9.82;;;7.68;;
11685;SDS011;5899;51.282;6.094;2023-08-01T03:24:39;10.45;;;7.90;;
11685;SDS011;5899;51.282;6.094;2023-08-01T03:27:39;9.98;;;7.72;;
11685;SDS011;5899;51.282;6.094;2023-08-01T03:30:02;11.68;;;8.50;;
11685;SDS011;5899;51.282;6.094;2023-08-01T03:32:45;10.90;;;8.53;;
11685;SDS011;5899;51.282;6.094;2023-08-01T03:35:59;10.15;;;9.00;;
11685;SDS011;5899;51.282;6.094;2023-08-01T03:38:33;12.13;;;9.25;;
11685;SDS011;5899;51.282;6.094;2023-08-01T03:43:48;12.82;;;8.65;;
11685;SDS011;5899;51.282;6.094;2023-08-01T03:46:18;10.95;;;8.63;;
11685;SDS011;5899;51.282;6.094;2023-08-01T03:48:58;12.85;;;9.25;;
11685;SDS011;5899;51.282;6.094;2023-08-01T03:51:27;14.10;;;9.57;;
11685;SDS011;5899;51.282;6.094;2023-08-01T03:54:02;13.88;;;8.98;;
11685;SDS011;5899;51.282;6.094;2023-08-01T03:56:32;12.40;;;9.40;;
11685;SDS011;5899;51.282;6.094;2023-08-01T03:59:11;14.05;;;9.43;;
11685;SDS011;5899;51.282;6.094;2023-08-01T04:01:41;14.18;;;9.30;;
11685;SDS011;5899;51.282;6.094;2023-08-01T04:04:17;14.73;;;9.57;;
11685;SDS011;5899;51.282;6.094;2023-08-01T04:07:02;14.25;;;9.57;;
11685;SDS011;5899;51.282;6.094;2023-08-01T04:09:31;13.20;;;9.60;;
11685;SDS011;5899;51.282;6.094;2023-08-01T04:12:12;14.18;;;9.63;;
11685;SDS011;5899;51.282;6.094;2023-08-01T04:20:32;13.60;;;9.48;;
11685;SDS011;5899;51.282;6.094;2023-08-01T04:24:19;14.77;;;9.43;;
11685;SDS011;5899;51.282;6.094;2023-08-01T04:25:51;14.00;;;8.98;;
11685;SDS011;5899;51.282;6.094;2023-08-01T04:28:21;11.88;;;8.65;;
11685;SDS011;5899;51.282;6.094;2023-08-01T04:30:50;12.93;;;8.77;;
11685;SDS011;5899;51.282;6.094;2023-08-01T04:33:22;12.52;;;8.75;;
11685;SDS011;5899;51.282;6.094;2023-08-01T04:36:08;12.17;;;8.40;;
11685;SDS011;5899;51.282;6.094;2023-08-01T04:38:56;11.27;;;8.68;;
11685;SDS011;5899;51.282;6.094;2023-08-01T04:41:27;12.10;;;8.63;;
11685;SDS011;5899;51.282;6.094;2023-08-01T04:43:59;11.52;;;8.02;;
11685;SDS011;5899;51.282;6.094;2023-08-01T04:46:41;12.55;;;8.98;;
11685;SDS011;5899;51.282;6.094;2023-08-01T04:49:17;12.32;;;8.18;;
11685;SDS011;5899;51.282;6.094;2023-08-01T04:51:45;11.40;;;7.97;;
11685;SDS011;5899;51.282;6.094;2023-08-01T04:54:16;14.35;;;8.55;;
11685;SDS011;5899;51.282;6.094;2023-08-01T04:56:43;12.25;;;9.15;;
11685;SDS011;5899;51.282;6.094;2023-08-01T04:59:10;12.23;;;8.25;;
11685;SDS011;5899;51.282;6.094;2023-08-01T05:01:42;10.67;;;7.60;;
11685;SDS011;5899;51.282;6.094;2023-08-01T05:04:23;9.63;;;7.47;;
11685;SDS011;5899;51.282;6.094;2023-08-01T05:06:57;9.15;;;6.68;;
11685;SDS011;5899;51.282;6.094;2023-08-01T05:09:25;9.25;;;7.10;;
11685;SDS011;5899;51.282;6.094;2023-08-01T05:12:04;8.57;;;6.53;;
11685;SDS011;5899;51.282;6.094;2023-08-01T05:14:33;7.55;;;6.35;;
11685;SDS011;5899;51.282;6.094;2023-08-01T05:17:01;9.15;;;6.45;;
11685;SDS011;5899;51.282;6.094;2023-08-01T05:19:34;8.90;;;6.57;;
11685;SDS011;5899;51.282;6.094;2023-08-01T05:22:07;11.43;;;6.75;;
11685;SDS011;5899;51.282;6.094;2023-08-01T05:24:41;7.85;;;6.13;;
11685;SDS011;5899;51.282;6.094;2023-08-01T05:27:14;8.15;;;5.97;;
11685;SDS011;5899;51.282;6.094;2023-08-01T05:29:47;8.53;;;6.13;;
11685;SDS011;5899;51.282;6.094;2023-08-01T05:32:14;8.13;;;5.82;;
11685;SDS011;5899;51.282;6.094;2023-08-01T05:34:45;9.10;;;6.28;;
11685;SDS011;5899;51.282;6.094;2023-08-01T05:37:26;8.07;;;5.57;;
11685;SDS011;5899;51.282;6.094;2023-08-01T05:40:00;6.40;;;5.40;;
11685;SDS011;5899;51.282;6.094;2023-08-01T05:42:33;8.95;;;5.63;;
11685;SDS011;5899;51.282;6.094;2023-08-01T05:45:03;11.20;;;6.25;;
11685;SDS011;5899;51.282;6.094;2023-08-01T05:47:48;8.15;;;5.60;;
11685;SDS011;5899;51.282;6.094;2023-08-01T05:50:26;9.03;;;5.93;;
11685;SDS011;5899;51.282;6.094;2023-08-01T05:53:03;7.40;;;5.75;;
11685;SDS011;5899;51.282;6.094;2023-08-01T05:55:31;9.63;;;6.00;;
11685;SDS011;5899;51.282;6.094;2023-08-01T05:58:01;8.63;;;6.22;;
11685;SDS011;5899;51.282;6.094;2023-08-01T06:00:27;9.63;;;5.60;;
11685;SDS011;5899;51.282;6.094;2023-08-01T06:02:55;8.73;;;5.78;;
11685;SDS011;5899;51.282;6.094;2023-08-01T06:05:26;9.20;;;6.40;;
11685;SDS011;5899;51.282;6.094;2023-08-01T06:08:01;9.03;;;6.20;;
11685;SDS011;5899;51.282;6.094;2023-08-01T06:10:34;8.10;;;5.65;;
11685;SDS011;5899;51.282;6.094;2023-08-01T06:13:01;9.73;;;5.70;;
11685;SDS011;5899;51.282;6.094;2023-08-01T06:15:38;9.35;;;5.82;;
11685;SDS011;5899;51.282;6.094;2023-08-01T06:18:08;9.60;;;6.20;;
11685;SDS011;5899;51.282;6.094;2023-08-01T06:20:53;9.15;;;5.95;;
11685;SDS011;5899;51.282;6.094;2023-08-01T06:23:42;7.72;;;5.82;;
11685;SDS011;5899;51.282;6.094;2023-08-01T06:26:14;7.88;;;5.68;;
11685;SDS011;5899;51.282;6.094;2023-08-01T06:28:43;10.00;;;6.28;;
11685;SDS011;5899;51.282;6.094;2023-08-01T06:31:17;8.27;;;6.60;;
11685;SDS011;5899;51.282;6.094;2023-08-01T06:33:54;7.78;;;6.53;;
11685;SDS011;5899;51.282;6.094;2023-08-01T06:36:27;8.73;;;6.07;;
11685;SDS011;5899;51.282;6.094;2023-08-01T06:39:14;11.23;;;6.22;;
11685;SDS011;5899;51.282;6.094;2023-08-01T06:41:50;9.45;;;6.35;;
11685;SDS011;5899;51.282;6.094;2023-08-01T06:44:24;11.07;;;6.68;;
11685;SDS011;5899;51.282;6.094;2023-08-01T06:46:50;8.77;;;6.03;;
11685;SDS011;5899;51.282;6.094;2023-08-01T06:49:19;8.53;;;6.17;;
11685;SDS011;5899;51.282;6.094;2023-08-01T06:51:46;9.18;;;6.90;;
11685;SDS011;5899;51.282;6.094;2023-08-01T06:54:28;10.02;;;6.28;;
11685;SDS011;5899;51.282;6.094;2023-08-01T06:57:05;10.43;;;6.20;;
11685;SDS011;5899;51.282;6.094;2023-08-01T06:59:34;8.27;;;6.50;;
11685;SDS011;5899;51.282;6.094;2023-08-01T07:02:08;10.32;;;7.20;;
11685;SDS011;5899;51.282;6.094;2023-08-01T07:04:53;11.07;;;6.40;;
11685;SDS011;5899;51.282;6.094;2023-08-01T07:07:33;8.25;;;5.68;;
11685;SDS011;5899;51.282;6.094;2023-08-01T07:10:10;6.95;;;5.97;;
11685;SDS011;5899;51.282;6.094;2023-08-01T07:12:59;9.97;;;6.30;;
11685;SDS011;5899;51.282;6.094;2023-08-01T07:15:29;7.55;;;6.20;;
11685;SDS011;5899;51.282;6.094;2023-08-01T07:17:58;9.35;;;5.97;;
11685;SDS011;5899;51.282;6.094;2023-08-01T07:20:35;9.05;;;6.57;;
11685;SDS011;5899;51.282;6.094;2023-08-01T07:23:05;9.93;;;5.90;;
11685;SDS011;5899;51.282;6.094;2023-08-01T07:25:48;7.78;;;6.22;;
11685;SDS011;5899;51.282;6.094;2023-08-01T07:28:19;9.50;;;6.15;;
11685;SDS011;5899;51.282;6.094;2023-08-01T07:30:48;7.22;;;5.13;;
11685;SDS011;5899;51.282;6.094;2023-08-01T07:33:25;8.43;;;5.40;;
11685;SDS011;5899;51.282;6.094;2023-08-01T07:35:57;7.85;;;5.32;;
11685;SDS011;5899;51.282;6.094;2023-08-01T07:38:31;8.07;;;5.50;;
11685;SDS011;5899;51.282;6.094;2023-08-01T07:41:03;7.10;;;4.90;;
11685;SDS011;5899;51.282;6.094;2023-08-01T07:43:32;7.47;;;5.15;;
11685;SDS011;5899;51.282;6.094;2023-08-01T07:46:07;8.43;;;5.40;;
11685;SDS011;5899;51.282;6.094;2023-08-01T07:49:08;11.20;;;4.85;;
11685;SDS011;5899;51.282;6.094;2023-08-01T07:51:33;8.00;;;5.00;;
11685;SDS011;5899;51.282;6.094;2023-08-01T07:54:03;7.57;;;5.30;;
11685;SDS011;5899;51.282;6.094;2023-08-01T07:56:35;6.27;;;4.60;;
11685;SDS011;5899;51.282;6.094;2023-08-01T07:59:13;7.63;;;4.95;;
11685;SDS011;5899;51.282;6.094;2023-08-01T08:01:45;6.53;;;4.90;;
11685;SDS011;5899;51.282;6.094;2023-08-01T08:04:50;13.40;;;5.15;;
11685;SDS011;5899;51.282;6.094;2023-08-01T08:07:16;6.28;;;4.18;;
11685;SDS011;5899;51.282;6.094;2023-08-01T08:09:47;6.83;;;4.73;;
11685;SDS011;5899;51.282;6.094;2023-08-01T08:12:26;6.32;;;4.60;;
11685;SDS011;5899;51.282;6.094;2023-08-01T08:16:36;7.30;;;4.53;;
11685;SDS011;5899;51.282;6.094;2023-08-01T08:18:04;4.68;;;4.20;;
11685;SDS011;5899;51.282;6.094;2023-08-01T08:20:39;7.13;;;4.47;;
11685;SDS011;5899;51.282;6.094;2023-08-01T08:23:34;4.63;;;3.88;;
11685;SDS011;5899;51.282;6.094;2023-08-01T08:26:10;8.55;;;4.28;;
11685;SDS011;5899;51.282;6.094;2023-08-01T08:28:53;8.95;;;4.40;;
11685;SDS011;5899;51.282;6.094;2023-08-01T08:31:41;5.45;;;4.00;;
11685;SDS011;5899;51.282;6.094;2023-08-01T08:34:20;4.97;;;4.07;;
11685;SDS011;5899;51.282;6.094;2023-08-01T08:37:01;6.28;;;4.13;;
11685;SDS011;5899;51.282;6.094;2023-08-01T08:42:34;5.70;;;3.80;;
11685;SDS011;5899;51.282;6.094;2023-08-01T08:45:11;5.68;;;4.43;;
11685;SDS011;5899;51.282;6.094;2023-08-01T08:48:01;7.00;;;4.20;;
11685;SDS011;5899;51.282;6.094;2023-08-01T08:50:43;4.60;;;4.10;;
11685;SDS011;5899;51.282;6.094;2023-08-01T08:53:22;6.65;;;4.13;;
11685;SDS011;5899;51.282;6.094;2023-08-01T08:56:05;6.82;;;3.88;;
11685;SDS011;5899;51.282;6.094;2023-08-01T08:58:59;5.57;;;3.67;;
11685;SDS011;5899;51.282;6.094;2023-08-01T09:01:53;5.00;;;4.40;;
11685;SDS011;5899;51.282;6.094;2023-08-01T09:04:28;7.45;;;3.75;;
11685;SDS011;5899;51.282;6.094;2023-08-01T09:07:38;6.63;;;4.60;;
11685;SDS011;5899;51.282;6.094;2023-08-01T09:12:54;4.25;;;3.85;;
11685;SDS011;5899;51.282;6.094;2023-08-01T09:15:23;6.10;;;3.65;;
11685;SDS011;5899;51.282;6.094;2023-08-01T09:24:08;6.18;;;3.83;;
11685;SDS011;5899;51.282;6.094;2023-08-01T09:26:35;4.70;;;3.60;;
11685;SDS011;5899;51.282;6.094;2023-08-01T09:29:02;5.70;;;3.50;;
11685;SDS011;5899;51.282;6.094;2023-08-01T09:31:29;4.28;;;3.10;;
11685;SDS011;5899;51.282;6.094;2023-08-01T09:33:55;5.20;;;3.28;;
11685;SDS011;5899;51.282;6.094;2023-08-01T09:36:22;5.65;;;3.30;;
11685;SDS011;5899;51.282;6.094;2023-08-01T09:38:48;5.93;;;3.70;;
11685;SDS011;5899;51.282;6.094;2023-08-01T09:41:17;5.28;;;3.28;;
11685;SDS011;5899;51.282;6.094;2023-08-01T09:43:45;5.70;;;3.60;;
11685;SDS011;5899;51.282;6.094;2023-08-01T09:46:12;4.53;;;3.70;;
11685;SDS011;5899;51.282;6.094;2023-08-01T09:48:38;5.22;;;3.47;;
11685;SDS011;5899;51.282;6.094;2023-08-01T09:51:06;6.05;;;3.20;;
11685;SDS011;5899;51.282;6.094;2023-08-01T09:53:33;5.07;;;4.00;;
11685;SDS011;5899;51.282;6.094;2023-08-01T09:56:00;4.77;;;3.27;;
11685;SDS011;5899;51.282;6.094;2023-08-01T09:58:28;4.63;;;3.53;;
11685;SDS011;5899;51.282;6.094;2023-08-01T10:00:57;4.30;;;3.40;;
11685;SDS011;5899;51.282;6.094;2023-08-01T10:03:25;4.97;;;3.22;;
11685;SDS011;5899;51.282;6.094;2023-08-01T10:05:53;5.03;;;3.13;;
11685;SDS011;5899;51.282;6.094;2023-08-01T10:08:20;5.47;;;3.20;;
11685;SDS011;5899;51.282;6.094;2023-08-01T10:10:47;5.28;;;3.50;;
11685;SDS011;5899;51.282;6.094;2023-08-01T10:13:13;6.68;;;3.60;;
11685;SDS011;5899;51.282;6.094;2023-08-01T10:15:42;4.07;;;3.33;;
11685;SDS011;5899;51.282;6.094;2023-08-01T10:18:08;5.73;;;3.17;;
11685;SDS011;5899;51.282;6.094;2023-08-01T10:20:38;5.10;;;3.83;;
11685;SDS011;5899;51.282;6.094;2023-08-01T10:23:05;7.75;;;3.45;;
11685;SDS011;5899;51.282;6.094;2023-08-01T10:25:35;4.85;;;2.97;;
11685;SDS011;5899;51.282;6.094;2023-08-01T10:28:04;5.30;;;3.10;;
11685;SDS011;5899;51.282;6.094;2023-08-01T10:30:30;5.68;;;3.03;;
11685;SDS011;5899;51.282;6.094;2023-08-01T10:33:03;4.55;;;2.92;;
11685;SDS011;5899;51.282;6.094;2023-08-01T10:35:34;4.43;;;3.15;;
11685;SDS011;5899;51.282;6.094;2023-08-01T10:38:20;3.95;;;3.20;;
11685;SDS011;5899;51.282;6.094;2023-08-01T10:40:48;5.63;;;3.10;;
11685;SDS011;5899;51.282;6.094;2023-08-01T10:43:21;3.05;;;2.40;;
11685;SDS011;5899;51.282;6.094;2023-08-01T10:46:00;3.80;;;2.40;;
11685;SDS011;5899;51.282;6.094;2023-08-01T10:48:28;5.05;;;2.53;;
11685;SDS011;5899;51.282;6.094;2023-08-01T10:50:57;4.45;;;2.53;;
11685;SDS011;5899;51.282;6.094;2023-08-01T10:53:37;4.45;;;2.85;;
11685;SDS011;5899;51.282;6.094;2023-08-01T10:56:04;4.00;;;2.63;;
11685;SDS011;5899;51.282;6.094;2023-08-01T10:58:31;4.57;;;2.78;;
11685;SDS011;5899;51.282;6.094;2023-08-01T11:00:58;4.15;;;2.85;;
11685;SDS011;5899;51.282;6.094;2023-08-01T11:03:46;4.90;;;2.90;;
11685;SDS011;5899;51.282;6.094;2023-08-01T11:06:20;3.45;;;2.28;;
11685;SDS011;5899;51.282;6.094;2023-08-01T11:08:46;3.65;;;2.58;;
11685;SDS011;5899;51.282;6.094;2023-08-01T11:11:17;3.23;;;2.47;;
11685;SDS011;5899;51.282;6.094;2023-08-01T11:13:53;3.55;;;2.30;;
11685;SDS011;5899;51.282;6.094;2023-08-01T11:16:23;3.50;;;2.45;;
11685;SDS011;5899;51.282;6.094;2023-08-01T11:18:54;4.40;;;2.47;;
11685;SDS011;5899;51.282;6.094;2023-08-01T11:21:25;4.25;;;2.40;;
11685;SDS011;5899;51.282;6.094;2023-08-01T11:23:52;3.58;;;2.80;;
11685;SDS011;5899;51.282;6.094;2023-08-01T11:26:18;3.53;;;2.73;;
11685;SDS011;5899;51.282;6.094;2023-08-01T11:28:45;4.10;;;2.60;;
11685;SDS011;5899;51.282;6.094;2023-08-01T11:31:11;5.50;;;2.72;;
11685;SDS011;5899;51.282;6.094;2023-08-01T11:33:38;4.30;;;2.93;;
11685;SDS011;5899;51.282;6.094;2023-08-01T11:36:07;3.10;;;2.70;;
11685;SDS011;5899;51.282;6.094;2023-08-01T11:38:34;5.73;;;2.57;;
11685;SDS011;5899;51.282;6.094;2023-08-01T11:41:02;4.05;;;2.90;;
11685;SDS011;5899;51.282;6.094;2023-08-01T11:43:37;4.20;;;2.90;;
11685;SDS011;5899;51.282;6.094;2023-08-01T11:46:04;4.70;;;2.80;;
11685;SDS011;5899;51.282;6.094;2023-08-01T11:48:31;3.50;;;2.45;;
11685;SDS011;5899;51.282;6.094;2023-08-01T11:50:58;4.03;;;2.55;;
11685;SDS011;5899;51.282;6.094;2023-08-01T11:53:26;4.23;;;2.23;;
11685;SDS011;5899;51.282;6.094;2023-08-01T11:55:53;4.78;;;2.28;;
11685;SDS011;5899;51.282;6.094;2023-08-01T12:01:05;3.58;;;2.45;;
11685;SDS011;5899;51.282;6.094;2023-08-01T12:03:32;4.30;;;2.13;;
11685;SDS011;5899;51.282;6.094;2023-08-01T12:06:04;3.90;;;2.22;;
11685;SDS011;5899;51.282;6.094;2023-08-01T12:08:34;3.83;;;2.20;;
11685;SDS011;5899;51.282;6.094;2023-08-01T12:11:00;3.97;;;2.40;;
11685;SDS011;5899;51.282;6.094;2023-08-01T12:13:27;3.43;;;2.20;;
11685;SDS011;5899;51.282;6.094;2023-08-01T12:15:55;4.00;;;2.50;;
11685;SDS011;5899;51.282;6.094;2023-08-01T12:18:22;4.68;;;2.33;;
11685;SDS011;5899;51.282;6.094;2023-08-01T12:20:49;4.05;;;2.45;;
11685;SDS011;5899;51.282;6.094;2023-08-01T12:23:15;3.72;;;2.40;;
11685;SDS011;5899;51.282;6.094;2023-08-01T12:25:45;3.92;;;2.40;;
11685;SDS011;5899;51.282;6.094;2023-08-01T12:28:21;4.07;;;2.47;;
11685;SDS011;5899;51.282;6.094;2023-08-01T12:30:48;4.43;;;2.50;;
11685;SDS011;5899;51.282;6.094;2023-08-01T12:33:16;3.33;;;2.33;;
11685;SDS011;5899;51.282;6.094;2023-08-01T12:35:42;4.50;;;2.33;;
11685;SDS011;5899;51.282;6.094;2023-08-01T12:38:09;4.75;;;2.60;;
11685;SDS011;5899;51.282;6.094;2023-08-01T12:40:35;3.60;;;2.20;;
11685;SDS011;5899;51.282;6.094;2023-08-01T12:43:03;3.05;;;1.88;;
11685;SDS011;5899;51.282;6.094;2023-08-01T12:45:30;3.83;;;2.20;;
11685;SDS011;5899;51.282;6.094;2023-08-01T12:47:57;2.37;;;1.70;;
11685;SDS011;5899;51.282;6.094;2023-08-01T12:50:23;5.43;;;1.90;;
11685;SDS011;5899;51.282;6.094;2023-08-01T12:52:52;2.78;;;1.90;;
11685;SDS011;5899;51.282;6.094;2023-08-01T12:55:19;3.10;;;1.88;;
11685;SDS011;5899;51.282;6.094;2023-08-01T12:57:45;3.43;;;1.50;;
11685;SDS011;5899;51.282;6.094;2023-08-01T13:00:15;3.73;;;1.70;;
11685;SDS011;5899;51.282;6.094;2023-08-01T13:02:42;2.22;;;1.70;;
11685;SDS011;5899;51.282;6.094;2023-08-01T13:05:09;3.30;;;1.90;;
11685;SDS011;5899;51.282;6.094;2023-08-01T13:07:35;5.57;;;1.88;;
11685;SDS011;5899;51.282;6.094;2023-08-01T13:10:02;2.83;;;1.70;;
11685;SDS011;5899;51.282;6.094;2023-08-01T13:12:28;4.10;;;1.80;;
11685;SDS011;5899;51.282;6.094;2023-08-01T13:14:55;3.05;;;2.13;;
11685;SDS011;5899;51.282;6.094;2023-08-01T13:17:22;3.53;;;1.98;;
11685;SDS011;5899;51.282;6.094;2023-08-01T13:19:49;2.90;;;1.85;;
11685;SDS011;5899;51.282;6.094;2023-08-01T13:22:16;4.68;;;2.10;;
11685;SDS011;5899;51.282;6.094;2023-08-01T13:24:42;3.00;;;1.98;;
11685;SDS011;5899;51.282;6.094;2023-08-01T13:27:10;3.30;;;1.70;;
11685;SDS011;5899;51.282;6.094;2023-08-01T13:29:37;3.47;;;1.88;;
11685;SDS011;5899;51.282;6.094;2023-08-01T13:32:05;3.78;;;1.50;;
11685;SDS011;5899;51.282;6.094;2023-08-01T13:34:34;4.38;;;2.38;;
11685;SDS011;5899;51.282;6.094;2023-08-01T13:37:01;4.00;;;1.75;;
11685;SDS011;5899;51.282;6.094;2023-08-01T13:39:27;4.50;;;2.20;;
11685;SDS011;5899;51.282;6.094;2023-08-01T13:41:54;3.30;;;1.80;;
11685;SDS011;5899;51.282;6.094;2023-08-01T13:44:20;2.47;;;1.67;;
11685;SDS011;5899;51.282;6.094;2023-08-01T13:46:47;3.75;;;1.90;;
11685;SDS011;5899;51.282;6.094;2023-08-01T13:49:13;4.33;;;1.97;;
11685;SDS011;5899;51.282;6.094;2023-08-01T13:51:45;2.83;;;1.73;;
11685;SDS011;5899;51.282;6.094;2023-08-01T13:54:12;2.92;;;2.08;;
11685;SDS011;5899;51.282;6.094;2023-08-01T13:56:40;2.75;;;1.80;;
11685;SDS011;5899;51.282;6.094;2023-08-01T13:59:09;3.00;;;2.05;;
11685;SDS011;5899;51.282;6.094;2023-08-01T14:01:36;2.20;;;1.67;;
11685;SDS011;5899;51.282;6.094;2023-08-01T14:04:05;2.50;;;2.00;;
11685;SDS011;5899;51.282;6.094;2023-08-01T14:06:31;2.73;;;2.00;;
11685;SDS011;5899;51.282;6.094;2023-08-01T14:08:59;3.17;;;1.83;;
11685;SDS011;5899;51.282;6.094;2023-08-01T14:11:26;3.53;;;1.73;;
11685;SDS011;5899;51.282;6.094;2023-08-01T14:13:52;2.72;;;1.63;;
11685;SDS011;5899;51.282;6.094;2023-08-01T14:16:20;3.73;;;1.90;;
11685;SDS011;5899;51.282;6.094;2023-08-01T14:18:46;2.45;;;1.70;;
11685;SDS011;5899;51.282;6.094;2023-08-01T14:21:13;2.20;;;1.75;;
11685;SDS011;5899;51.282;6.094;2023-08-01T14:23:40;2.80;;;1.70;;
11685;SDS011;5899;51.282;6.094;2023-08-01T14:26:12;3.50;;;1.80;;
11685;SDS011;5899;51.282;6.094;2023-08-01T14:28:40;2.40;;;1.60;;
11685;SDS011;5899;51.282;6.094;2023-08-01T14:31:09;1.55;;;1.45;;
11685;SDS011;5899;51.282;6.094;2023-08-01T14:33:37;2.17;;;1.57;;
11685;SDS011;5899;51.282;6.094;2023-08-01T14:36:07;2.95;;;1.42;;
11685;SDS011;5899;51.282;6.094;2023-08-01T14:38:34;3.97;;;1.80;;
11685;SDS011;5899;51.282;6.094;2023-08-01T14:41:03;2.92;;;1.60;;
11685;SDS011;5899;51.282;6.094;2023-08-01T14:43:33;1.92;;;1.45;;
11685;SDS011;5899;51.282;6.094;2023-08-01T14:46:01;2.35;;;1.42;;
11685;SDS011;5899;51.282;6.094;2023-08-01T14:48:31;3.30;;;1.77;;
11685;SDS011;5899;51.282;6.094;2023-08-01T14:50:59;3.00;;;2.03;;
11685;SDS011;5899;51.282;6.094;2023-08-01T14:53:27;2.05;;;1.52;;
11685;SDS011;5899;51.282;6.094;2023-08-01T14:56:02;2.75;;;1.73;;
11685;SDS011;5899;51.282;6.094;2023-08-01T14:58:36;2.17;;;1.52;;
11685;SDS011;5899;51.282;6.094;2023-08-01T15:01:13;4.72;;;1.80;;
11685;SDS011;5899;51.282;6.094;2023-08-01T15:03:39;3.97;;;1.67;;
11685;SDS011;5899;51.282;6.094;2023-08-01T15:06:16;2.50;;;1.40;;
11685;SDS011;5899;51.282;6.094;2023-08-01T15:08:51;1.90;;;1.37;;
11685;SDS011;5899;51.282;6.094;2023-08-01T15:11:35;2.95;;;1.50;;
11685;SDS011;5899;51.282;6.094;2023-08-01T15:14:09;2.85;;;1.42;;
11685;SDS011;5899;51.282;6.094;2023-08-01T15:16:37;2.40;;;1.60;;
11685;SDS011;5899;51.282;6.094;2023-08-01T15:19:06;2.33;;;1.63;;
11685;SDS011;5899;51.282;6.094;2023-08-01T15:21:34;4.20;;;1.63;;
11685;SDS011;5899;51.282;6.094;2023-08-01T15:24:02;2.88;;;1.50;;
11685;SDS011;5899;51.282;6.094;2023-08-01T15:26:32;3.35;;;1.50;;
11685;SDS011;5899;51.282;6.094;2023-08-01T15:29:00;5.93;;;1.80;;
11685;SDS011;5899;51.282;6.094;2023-08-01T15:31:28;2.85;;;1.58;;
11685;SDS011;5899;51.282;6.094;2023-08-01T15:33:59;2.65;;;1.63;;
11685;SDS011;5899;51.282;6.094;2023-08-01T15:36:26;2.97;;;1.60;;
11685;SDS011;5899;51.282;6.094;2023-08-01T15:38:55;3.00;;;1.55;;
11685;SDS011;5899;51.282;6.094;2023-08-01T15:41:36;3.33;;;1.70;;
11685;SDS011;5899;51.282;6.094;2023-08-01T15:44:02;4.10;;;1.60;;
11685;SDS011;5899;51.282;6.094;2023-08-01T15:46:43;3.90;;;1.50;;
11685;SDS011;5899;51.282;6.094;2023-08-01T15:49:12;2.58;;;1.77;;
11685;SDS011;5899;51.282;6.094;2023-08-01T15:51:48;3.00;;;1.50;;
11685;SDS011;5899;51.282;6.094;2023-08-01T15:54:14;2.80;;;1.65;;
11685;SDS011;5899;51.282;6.094;2023-08-01T15:56:44;3.60;;;1.65;;
11685;SDS011;5899;51.282;6.094;2023-08-01T15:59:18;2.58;;;1.35;;
11685;SDS011;5899;51.282;6.094;2023-08-01T16:01:53;2.00;;;1.60;;
11685;SDS011;5899;51.282;6.094;2023-08-01T16:04:28;2.45;;;1.40;;
11685;SDS011;5899;51.282;6.094;2023-08-01T16:07:03;2.28;;;1.50;;
11685;SDS011;5899;51.282;6.094;2023-08-01T16:09:35;2.63;;;1.70;;
11685;SDS011;5899;51.282;6.094;2023-08-01T16:12:04;2.97;;;1.63;;
11685;SDS011;5899;51.282;6.094;2023-08-01T16:14:31;3.03;;;1.60;;
11685;SDS011;5899;51.282;6.094;2023-08-01T16:17:06;2.00;;;1.50;;
11685;SDS011;5899;51.282;6.094;2023-08-01T16:19:35;3.05;;;1.40;;